sensor_id;sensor_type;location;lat;lon;timestamp;temperature;humidity
15262;DHT22;7733;51.554;13.590;2023-08-30T00:00:57;14.60;99.90
15262;DHT22;7733;51.554;13.590;2023-08-30T00:03:22;14.50;99.90
15262;DHT22;7733;51.554;13.590;2023-08-30T00:05:48;14.60;99.90
15262;DHT22;7733;51.554;13.590;2023-08-30T00:08:16;14.60;99.90
15262;DHT22;7733;51.554;13.590;2023-08-30T00:10:44;14.60;99.90
15262;DHT22;7733;51.554;13.590;2023-08-30T00:13:13;14.50;99.90
15262;DHT22;7733;51.554;13.590;2023-08-30T00:15:39;14.60;99.90
15262;DHT22;7733;51.554;13.590;2023-08-30T00:18:05;14.70;99.90
15262;DHT22;7733;51.554;13.590;2023-08-30T00:20:31;14.70;99.90
15262;DHT22;7733;51.554;13.590;2023-08-30T00:22:57;14.60;99.90
15262;DHT22;7733;51.554;13.590;2023-08-30T00:25:22;14.60;99.90
15262;DHT22;7733;51.554;13.590;2023-08-30T00:27:48;14.70;99.90
15262;DHT22;7733;51.554;13.590;2023-08-30T00:30:14;14.80;99.90
15262;DHT22;7733;51.554;13.590;2023-08-30T00:32:39;14.80;99.90
15262;DHT22;7733;51.554;13.590;2023-08-30T00:35:05;14.80;99.90
15262;DHT22;7733;51.554;13.590;2023-08-30T00:37:31;14.70;99.90
15262;DHT22;7733;51.554;13.590;2023-08-30T00:39:57;14.60;99.90
15262;DHT22;7733;51.554;13.590;2023-08-30T00:42:25;14.50;99.90
15262;DHT22;7733;51.554;13.590;2023-08-30T00:44:50;14.60;99.90
15262;DHT22;7733;51.554;13.590;2023-08-30T00:47:16;14.70;99.90
15262;DHT22;7733;51.554;13.590;2023-08-30T00:49:42;14.70;99.90
15262;DHT22;7733;51.554;13.590;2023-08-30T00:52:09;14.80;99.90
15262;DHT22;7733;51.554;13.590;2023-08-30T00:54:36;14.80;99.90
15262;DHT22;7733;51.554;13.590;2023-08-30T00:57:02;14.70;99.90
15262;DHT22;7733;51.554;13.590;2023-08-30T00:59:32;14.70;99.90
15262;DHT22;7733;51.554;13.590;2023-08-30T01:01:59;14.60;99.90
15262;DHT22;7733;51.554;13.590;2023-08-30T01:04:27;14.70;99.90
15262;DHT22;7733;51.554;13.590;2023-08-30T01:06:53;14.70;99.90
15262;DHT22;7733;51.554;13.590;2023-08-30T01:09:19;14.60;99.90
15262;DHT22;7733;51.554;13.590;2023-08-30T01:12:13;14.60;99.90
15262;DHT22;7733;51.554;13.590;2023-08-30T01:17:35;14.40;99.90
15262;DHT22;7733;51.554;13.590;2023-08-30T01:20:05;14.50;99.90
15262;DHT22;7733;51.554;13.590;2023-08-30T01:23:07;14.50;99.90
15262;DHT22;7733;51.554;13.590;2023-08-30T01:28:33;14.50;99.90
15262;DHT22;7733;51.554;13.590;2023-08-30T01:31:02;14.40;99.90
15262;DHT22;7733;51.554;13.590;2023-08-30T01:33:31;14.40;99.90
15262;DHT22;7733;51.554;13.590;2023-08-30T01:35:59;14.40;99.90
15262;DHT22;7733;51.554;13.590;2023-08-30T01:38:28;14.40;99.90
15262;DHT22;7733;51.554;13.590;2023-08-30T01:40:57;14.30;99.90
15262;DHT22;7733;51.554;13.590;2023-08-30T01:43:26;14.30;99.90
15262;DHT22;7733;51.554;13.590;2023-08-30T01:45:54;14.30;99.90
15262;DHT22;7733;51.554;13.590;2023-08-30T01:48:23;14.30;99.90
15262;DHT22;7733;51.554;13.590;2023-08-30T01:50:50;14.30;99.90
15262;DHT22;7733;51.554;13.590;2023-08-30T01:53:16;14.30;99.90
15262;DHT22;7733;51.554;13.590;2023-08-30T01:55:43;14.20;99.90
15262;DHT22;7733;51.554;13.590;2023-08-30T01:58:09;14.20;99.90
15262;DHT22;7733;51.554;13.590;2023-08-30T02:00:36;14.20;99.90
15262;DHT22;7733;51.554;13.590;2023-08-30T02:03:13;14.20;99.90
15262;DHT22;7733;51.554;13.590;2023-08-30T02:06:10;14.20;99.90
15262;DHT22;7733;51.554;13.590;2023-08-30T02:11:47;14.20;99.90
15262;DHT22;7733;51.554;13.590;2023-08-30T02:14:18;14.10;99.90
15262;DHT22;7733;51.554;13.590;2023-08-30T02:16:46;14.10;99.90
15262;DHT22;7733;51.554;13.590;2023-08-30T02:19:13;14.10;99.90
15262;DHT22;7733;51.554;13.590;2023-08-30T02:21:42;14.20;99.90
15262;DHT22;7733;51.554;13.590;2023-08-30T02:24:09;14.10;99.90
15262;DHT22;7733;51.554;13.590;2023-08-30T02:26:34;14.20;99.90
15262;DHT22;7733;51.554;13.590;2023-08-30T02:29:00;14.20;99.90
15262;DHT22;7733;51.554;13.590;2023-08-30T02:31:26;14.20;99.90
15262;DHT22;7733;51.554;13.590;2023-08-30T02:33:51;14.20;99.90
15262;DHT22;7733;51.554;13.590;2023-08-30T02:36:17;14.20;99.90
15262;DHT22;7733;51.554;13.590;2023-08-30T02:38:43;14.30;99.90
15262;DHT22;7733;51.554;13.590;2023-08-30T02:41:08;14.30;99.90
15262;DHT22;7733;51.554;13.590;2023-08-30T02:43:35;14.30;99.90
15262;DHT22;7733;51.554;13.590;2023-08-30T02:46:01;14.30;99.90
15262;DHT22;7733;51.554;13.590;2023-08-30T02:48:29;14.30;99.90
15262;DHT22;7733;51.554;13.590;2023-08-30T02:50:54;14.30;99.90
15262;DHT22;7733;51.554;13.590;2023-08-30T02:53:21;14.40;99.90
15262;DHT22;7733;51.554;13.590;2023-08-30T02:55:47;14.30;99.90
15262;DHT22;7733;51.554;13.590;2023-08-30T02:58:13;14.30;99.90
15262;DHT22;7733;51.554;13.590;2023-08-30T03:00:39;14.30;99.90
15262;DHT22;7733;51.554;13.590;2023-08-30T03:03:04;14.20;99.90
15262;DHT22;7733;51.554;13.590;2023-08-30T03:05:30;14.30;99.90
15262;DHT22;7733;51.554;13.590;2023-08-30T03:07:56;14.30;99.90
15262;DHT22;7733;51.554;13.590;2023-08-30T03:10:22;14.30;99.90
15262;DHT22;7733;51.554;13.590;2023-08-30T03:12:48;14.40;99.90
15262;DHT22;7733;51.554;13.590;2023-08-30T03:15:14;14.40;99.90
15262;DHT22;7733;51.554;13.590;2023-08-30T03:17:40;14.40;99.90
15262;DHT22;7733;51.554;13.590;2023-08-30T03:20:06;14.40;99.90
15262;DHT22;7733;51.554;13.590;2023-08-30T03:22:32;14.30;99.90
15262;DHT22;7733;51.554;13.590;2023-08-30T03:24:58;14.30;99.90
15262;DHT22;7733;51.554;13.590;2023-08-30T03:27:24;14.20;99.90
15262;DHT22;7733;51.554;13.590;2023-08-30T03:29:50;14.20;99.90
15262;DHT22;7733;51.554;13.590;2023-08-30T03:32:20;14.20;99.90
15262;DHT22;7733;51.554;13.590;2023-08-30T03:34:46;14.20;99.90
15262;DHT22;7733;51.554;13.590;2023-08-30T03:37:16;14.30;99.90
15262;DHT22;7733;51.554;13.590;2023-08-30T03:39:42;14.30;99.90
15262;DHT22;7733;51.554;13.590;2023-08-30T03:42:08;14.40;99.90
15262;DHT22;7733;51.554;13.590;2023-08-30T03:44:35;14.40;99.90
15262;DHT22;7733;51.554;13.590;2023-08-30T03:47:00;14.30;99.90
15262;DHT22;7733;51.554;13.590;2023-08-30T03:49:27;14.30;99.90
15262;DHT22;7733;51.554;13.590;2023-08-30T03:51:53;14.30;99.90
15262;DHT22;7733;51.554;13.590;2023-08-30T03:54:18;14.40;99.90
15262;DHT22;7733;51.554;13.590;2023-08-30T03:56:45;14.40;99.90
15262;DHT22;7733;51.554;13.590;2023-08-30T03:59:13;14.30;99.90
15262;DHT22;7733;51.554;13.590;2023-08-30T04:01:39;14.30;99.90
15262;DHT22;7733;51.554;13.590;2023-08-30T04:04:05;14.30;99.90
15262;DHT22;7733;51.554;13.590;2023-08-30T04:06:31;14.30;99.90
15262;DHT22;7733;51.554;13.590;2023-08-30T04:08:57;14.30;99.90
15262;DHT22;7733;51.554;13.590;2023-08-30T04:11:23;14.20;99.90
15262;DHT22;7733;51.554;13.590;2023-08-30T04:13:49;14.30;99.90
15262;DHT22;7733;51.554;13.590;2023-08-30T04:16:15;14.30;99.90
15262;DHT22;7733;51.554;13.590;2023-08-30T04:18:40;14.40;99.90
15262;DHT22;7733;51.554;13.590;2023-08-30T04:21:06;14.50;99.90
15262;DHT22;7733;51.554;13.590;2023-08-30T04:23:33;14.50;99.90
15262;DHT22;7733;51.554;13.590;2023-08-30T04:25:59;14.50;99.90
15262;DHT22;7733;51.554;13.590;2023-08-30T04:28:25;14.50;99.90
15262;DHT22;7733;51.554;13.590;2023-08-30T04:30:55;14.60;99.90
15262;DHT22;7733;51.554;13.590;2023-08-30T04:33:23;14.60;99.90
15262;DHT22;7733;51.554;13.590;2023-08-30T04:35:53;14.60;99.90
15262;DHT22;7733;51.554;13.590;2023-08-30T04:38:20;14.60;99.90
15262;DHT22;7733;51.554;13.590;2023-08-30T04:40:46;14.60;99.90
15262;DHT22;7733;51.554;13.590;2023-08-30T04:43:13;14.60;99.90
15262;DHT22;7733;51.554;13.590;2023-08-30T04:45:39;14.60;99.90
15262;DHT22;7733;51.554;13.590;2023-08-30T04:48:05;14.70;99.90
15262;DHT22;7733;51.554;13.590;2023-08-30T04:50:31;14.70;99.90
15262;DHT22;7733;51.554;13.590;2023-08-30T04:52:57;14.80;99.90
15262;DHT22;7733;51.554;13.590;2023-08-30T04:55:28;14.70;99.90
15262;DHT22;7733;51.554;13.590;2023-08-30T04:57:55;14.70;99.90
15262;DHT22;7733;51.554;13.590;2023-08-30T05:00:21;14.70;99.90
15262;DHT22;7733;51.554;13.590;2023-08-30T05:02:47;14.60;99.90
15262;DHT22;7733;51.554;13.590;2023-08-30T05:05:14;14.60;99.90
15262;DHT22;7733;51.554;13.590;2023-08-30T05:07:40;14.60;99.90
15262;DHT22;7733;51.554;13.590;2023-08-30T05:10:06;14.50;99.90
15262;DHT22;7733;51.554;13.590;2023-08-30T05:12:36;14.50;99.90
15262;DHT22;7733;51.554;13.590;2023-08-30T05:15:02;14.40;99.90
15262;DHT22;7733;51.554;13.590;2023-08-30T05:17:29;14.40;99.90
15262;DHT22;7733;51.554;13.590;2023-08-30T05:19:55;14.40;99.90
15262;DHT22;7733;51.554;13.590;2023-08-30T05:22:21;14.50;99.90
15262;DHT22;7733;51.554;13.590;2023-08-30T05:24:47;14.50;99.90
15262;DHT22;7733;51.554;13.590;2023-08-30T05:27:12;14.50;99.90
15262;DHT22;7733;51.554;13.590;2023-08-30T05:29:40;14.60;99.90
15262;DHT22;7733;51.554;13.590;2023-08-30T05:32:06;14.70;99.90
15262;DHT22;7733;51.554;13.590;2023-08-30T05:34:31;14.70;99.90
15262;DHT22;7733;51.554;13.590;2023-08-30T05:36:57;14.70;99.90
15262;DHT22;7733;51.554;13.590;2023-08-30T05:39:23;14.70;99.90
15262;DHT22;7733;51.554;13.590;2023-08-30T05:41:49;14.60;99.90
15262;DHT22;7733;51.554;13.590;2023-08-30T05:44:15;14.60;99.90
15262;DHT22;7733;51.554;13.590;2023-08-30T05:46:40;14.70;99.90
15262;DHT22;7733;51.554;13.590;2023-08-30T05:49:06;14.70;99.90
15262;DHT22;7733;51.554;13.590;2023-08-30T05:51:32;14.70;99.90
15262;DHT22;7733;51.554;13.590;2023-08-30T05:53:57;14.80;99.90
15262;DHT22;7733;51.554;13.590;2023-08-30T05:56:23;14.80;99.90
15262;DHT22;7733;51.554;13.590;2023-08-30T05:58:49;14.80;99.90
15262;DHT22;7733;51.554;13.590;2023-08-30T06:01:18;14.80;99.90
15262;DHT22;7733;51.554;13.590;2023-08-30T06:03:45;14.80;99.90
15262;DHT22;7733;51.554;13.590;2023-08-30T06:06:12;14.80;99.90
15262;DHT22;7733;51.554;13.590;2023-08-30T06:08:38;14.90;99.90
15262;DHT22;7733;51.554;13.590;2023-08-30T06:11:04;14.90;99.90
15262;DHT22;7733;51.554;13.590;2023-08-30T06:13:29;14.90;99.90
15262;DHT22;7733;51.554;13.590;2023-08-30T06:15:55;14.90;99.90
15262;DHT22;7733;51.554;13.590;2023-08-30T06:18:21;14.90;99.90
15262;DHT22;7733;51.554;13.590;2023-08-30T06:20:47;14.90;99.90
15262;DHT22;7733;51.554;13.590;2023-08-30T06:23:14;15.00;99.90
15262;DHT22;7733;51.554;13.590;2023-08-30T06:25:40;15.10;99.90
15262;DHT22;7733;51.554;13.590;2023-08-30T06:28:07;15.00;99.90
15262;DHT22;7733;51.554;13.590;2023-08-30T06:30:32;15.10;99.90
15262;DHT22;7733;51.554;13.590;2023-08-30T06:32:58;15.10;99.90
15262;DHT22;7733;51.554;13.590;2023-08-30T06:35:24;15.10;99.90
15262;DHT22;7733;51.554;13.590;2023-08-30T06:37:50;15.10;99.90
15262;DHT22;7733;51.554;13.590;2023-08-30T06:40:16;15.10;99.90
15262;DHT22;7733;51.554;13.590;2023-08-30T06:42:42;15.10;99.90
15262;DHT22;7733;51.554;13.590;2023-08-30T06:45:08;15.00;99.90
15262;DHT22;7733;51.554;13.590;2023-08-30T06:47:34;15.10;99.90
15262;DHT22;7733;51.554;13.590;2023-08-30T06:50:00;15.30;99.90
15262;DHT22;7733;51.554;13.590;2023-08-30T06:52:27;15.30;99.90
15262;DHT22;7733;51.554;13.590;2023-08-30T06:54:52;15.30;99.90
15262;DHT22;7733;51.554;13.590;2023-08-30T06:57:18;15.30;99.90
15262;DHT22;7733;51.554;13.590;2023-08-30T06:59:44;15.10;99.90
15262;DHT22;7733;51.554;13.590;2023-08-30T07:02:09;15.20;99.90
15262;DHT22;7733;51.554;13.590;2023-08-30T07:04:35;15.30;99.90
15262;DHT22;7733;51.554;13.590;2023-08-30T07:07:01;15.40;99.90
15262;DHT22;7733;51.554;13.590;2023-08-30T07:09:27;15.40;99.90
15262;DHT22;7733;51.554;13.590;2023-08-30T07:11:57;15.40;99.90
15262;DHT22;7733;51.554;13.590;2023-08-30T07:14:23;15.40;99.90
15262;DHT22;7733;51.554;13.590;2023-08-30T07:16:49;15.50;99.90
15262;DHT22;7733;51.554;13.590;2023-08-30T07:19:16;15.60;99.90
15262;DHT22;7733;51.554;13.590;2023-08-30T07:21:42;15.70;99.90
15262;DHT22;7733;51.554;13.590;2023-08-30T07:24:08;15.80;99.90
15262;DHT22;7733;51.554;13.590;2023-08-30T07:26:35;15.80;99.90
15262;DHT22;7733;51.554;13.590;2023-08-30T07:29:01;15.80;99.90
15262;DHT22;7733;51.554;13.590;2023-08-30T07:31:31;15.90;99.90
15262;DHT22;7733;51.554;13.590;2023-08-30T07:33:57;16.00;99.90
15262;DHT22;7733;51.554;13.590;2023-08-30T07:36:27;15.90;99.90
15262;DHT22;7733;51.554;13.590;2023-08-30T07:38:54;16.00;99.90
15262;DHT22;7733;51.554;13.590;2023-08-30T07:41:20;16.10;99.90
15262;DHT22;7733;51.554;13.590;2023-08-30T07:43:46;16.30;99.90
15262;DHT22;7733;51.554;13.590;2023-08-30T07:46:12;16.30;99.90
15262;DHT22;7733;51.554;13.590;2023-08-30T07:48:38;16.20;99.90
15262;DHT22;7733;51.554;13.590;2023-08-30T07:51:03;16.20;99.90
15262;DHT22;7733;51.554;13.590;2023-08-30T07:53:30;16.10;99.90
15262;DHT22;7733;51.554;13.590;2023-08-30T07:55:55;16.20;99.90
15262;DHT22;7733;51.554;13.590;2023-08-30T07:58:21;16.20;99.90
15262;DHT22;7733;51.554;13.590;2023-08-30T08:00:51;16.20;99.90
15262;DHT22;7733;51.554;13.590;2023-08-30T08:03:17;16.40;99.90
15262;DHT22;7733;51.554;13.590;2023-08-30T08:05:43;16.50;99.90
15262;DHT22;7733;51.554;13.590;2023-08-30T08:08:09;16.50;99.90
15262;DHT22;7733;51.554;13.590;2023-08-30T08:10:36;16.60;99.90
15262;DHT22;7733;51.554;13.590;2023-08-30T08:13:02;16.50;99.90
15262;DHT22;7733;51.554;13.590;2023-08-30T08:15:29;16.50;99.90
15262;DHT22;7733;51.554;13.590;2023-08-30T08:18:01;16.50;99.90
15262;DHT22;7733;51.554;13.590;2023-08-30T08:20:28;16.40;99.90
15262;DHT22;7733;51.554;13.590;2023-08-30T08:22:54;16.50;99.90
15262;DHT22;7733;51.554;13.590;2023-08-30T08:25:20;16.60;99.90
15262;DHT22;7733;51.554;13.590;2023-08-30T08:27:47;16.60;99.90
15262;DHT22;7733;51.554;13.590;2023-08-30T08:30:13;16.70;99.90
15262;DHT22;7733;51.554;13.590;2023-08-30T08:32:39;16.70;99.90
15262;DHT22;7733;51.554;13.590;2023-08-30T08:35:05;16.70;99.90
15262;DHT22;7733;51.554;13.590;2023-08-30T08:37:31;16.80;99.90
15262;DHT22;7733;51.554;13.590;2023-08-30T08:39:58;16.80;99.90
15262;DHT22;7733;51.554;13.590;2023-08-30T08:42:24;16.90;99.90
15262;DHT22;7733;51.554;13.590;2023-08-30T08:44:54;16.90;99.90
15262;DHT22;7733;51.554;13.590;2023-08-30T08:47:21;17.10;99.90
15262;DHT22;7733;51.554;13.590;2023-08-30T08:49:47;17.10;99.90
15262;DHT22;7733;51.554;13.590;2023-08-30T08:52:14;17.20;99.90
15262;DHT22;7733;51.554;13.590;2023-08-30T08:54:40;17.20;99.90
15262;DHT22;7733;51.554;13.590;2023-08-30T08:57:08;17.10;99.90
15262;DHT22;7733;51.554;13.590;2023-08-30T08:59:34;17.30;99.90
15262;DHT22;7733;51.554;13.590;2023-08-30T09:02:03;17.50;99.90
15262;DHT22;7733;51.554;13.590;2023-08-30T09:04:31;17.60;99.90
15262;DHT22;7733;51.554;13.590;2023-08-30T09:07:00;17.60;99.90
15262;DHT22;7733;51.554;13.590;2023-08-30T09:09:27;17.80;99.90
15262;DHT22;7733;51.554;13.590;2023-08-30T09:11:53;17.90;99.90
15262;DHT22;7733;51.554;13.590;2023-08-30T09:14:19;18.00;99.90
15262;DHT22;7733;51.554;13.590;2023-08-30T09:16:58;18.00;99.90
15262;DHT22;7733;51.554;13.590;2023-08-30T09:19:29;18.30;99.90
15262;DHT22;7733;51.554;13.590;2023-08-30T09:21:57;18.40;99.90
15262;DHT22;7733;51.554;13.590;2023-08-30T09:24:25;18.40;99.90
15262;DHT22;7733;51.554;13.590;2023-08-30T09:26:54;18.40;99.90
15262;DHT22;7733;51.554;13.590;2023-08-30T09:29:21;18.60;99.90
15262;DHT22;7733;51.554;13.590;2023-08-30T09:31:51;18.60;99.90
15262;DHT22;7733;51.554;13.590;2023-08-30T09:34:22;18.50;99.90
15262;DHT22;7733;51.554;13.590;2023-08-30T09:36:50;18.50;99.90
15262;DHT22;7733;51.554;13.590;2023-08-30T09:39:16;18.60;99.90
15262;DHT22;7733;51.554;13.590;2023-08-30T09:41:48;18.80;99.90
15262;DHT22;7733;51.554;13.590;2023-08-30T09:44:17;18.90;99.90
15262;DHT22;7733;51.554;13.590;2023-08-30T09:46:46;18.80;99.90
15262;DHT22;7733;51.554;13.590;2023-08-30T09:49:14;18.70;99.90
15262;DHT22;7733;51.554;13.590;2023-08-30T09:51:43;18.50;99.90
15262;DHT22;7733;51.554;13.590;2023-08-30T09:54:17;18.70;99.90
15262;DHT22;7733;51.554;13.590;2023-08-30T09:56:47;18.80;99.90
15262;DHT22;7733;51.554;13.590;2023-08-30T09:59:14;18.70;99.90
15262;DHT22;7733;51.554;13.590;2023-08-30T10:01:41;18.70;99.90
15262;DHT22;7733;51.554;13.590;2023-08-30T10:04:09;18.80;99.90
15262;DHT22;7733;51.554;13.590;2023-08-30T10:06:37;18.90;99.90
15262;DHT22;7733;51.554;13.590;2023-08-30T10:09:04;18.80;99.90
15262;DHT22;7733;51.554;13.590;2023-08-30T10:11:36;19.10;99.90
15262;DHT22;7733;51.554;13.590;2023-08-30T10:14:07;19.60;99.90
15262;DHT22;7733;51.554;13.590;2023-08-30T10:16:41;19.60;99.90
15262;DHT22;7733;51.554;13.590;2023-08-30T10:19:17;19.70;99.90
15262;DHT22;7733;51.554;13.590;2023-08-30T10:24:32;19.60;99.90
15262;DHT22;7733;51.554;13.590;2023-08-30T10:27:05;19.60;99.90
15262;DHT22;7733;51.554;13.590;2023-08-30T10:29:34;19.90;99.90
15262;DHT22;7733;51.554;13.590;2023-08-30T10:32:05;20.30;99.90
15262;DHT22;7733;51.554;13.590;2023-08-30T10:34:35;20.30;99.90
15262;DHT22;7733;51.554;13.590;2023-08-30T10:37:11;20.00;99.90
15262;DHT22;7733;51.554;13.590;2023-08-30T10:39:41;20.30;99.90
15262;DHT22;7733;51.554;13.590;2023-08-30T10:42:15;19.90;99.90
15262;DHT22;7733;51.554;13.590;2023-08-30T10:47:24;19.90;99.90
15262;DHT22;7733;51.554;13.590;2023-08-30T10:49:54;19.80;99.90
15262;DHT22;7733;51.554;13.590;2023-08-30T10:52:21;20.00;99.90
15262;DHT22;7733;51.554;13.590;2023-08-30T10:54:47;20.00;99.90
15262;DHT22;7733;51.554;13.590;2023-08-30T10:57:15;19.80;99.90
15262;DHT22;7733;51.554;13.590;2023-08-30T11:02:44;19.90;99.90
15262;DHT22;7733;51.554;13.590;2023-08-30T11:05:11;20.10;99.90
15262;DHT22;7733;51.554;13.590;2023-08-30T11:07:37;20.30;99.90
15262;DHT22;7733;51.554;13.590;2023-08-30T11:10:06;20.40;99.90
15262;DHT22;7733;51.554;13.590;2023-08-30T11:12:33;20.40;99.90
15262;DHT22;7733;51.554;13.590;2023-08-30T11:14:59;20.40;99.90
15262;DHT22;7733;51.554;13.590;2023-08-30T11:17:26;20.30;99.90
15262;DHT22;7733;51.554;13.590;2023-08-30T11:20:04;20.40;99.90
15262;DHT22;7733;51.554;13.590;2023-08-30T11:22:44;20.30;99.90
15262;DHT22;7733;51.554;13.590;2023-08-30T11:25:12;20.30;99.90
15262;DHT22;7733;51.554;13.590;2023-08-30T11:27:39;20.20;99.90
15262;DHT22;7733;51.554;13.590;2023-08-30T11:30:07;20.00;99.90
15262;DHT22;7733;51.554;13.590;2023-08-30T11:32:37;20.20;99.90
15262;DHT22;7733;51.554;13.590;2023-08-30T11:35:05;19.90;99.90
15262;DHT22;7733;51.554;13.590;2023-08-30T11:37:32;19.50;99.90
15262;DHT22;7733;51.554;13.590;2023-08-30T11:40:00;19.50;99.90
15262;DHT22;7733;51.554;13.590;2023-08-30T11:42:27;19.50;99.90
15262;DHT22;7733;51.554;13.590;2023-08-30T11:44:55;19.60;99.90
15262;DHT22;7733;51.554;13.590;2023-08-30T11:47:24;19.50;99.90
15262;DHT22;7733;51.554;13.590;2023-08-30T11:49:55;19.80;99.90
15262;DHT22;7733;51.554;13.590;2023-08-30T11:52:23;20.10;99.90
15262;DHT22;7733;51.554;13.590;2023-08-30T11:54:51;20.30;99.90
15262;DHT22;7733;51.554;13.590;2023-08-30T11:57:18;20.10;99.90
15262;DHT22;7733;51.554;13.590;2023-08-30T11:59:44;20.20;99.90
15262;DHT22;7733;51.554;13.590;2023-08-30T12:02:14;20.30;99.90
15262;DHT22;7733;51.554;13.590;2023-08-30T12:04:42;20.50;99.90
15262;DHT22;7733;51.554;13.590;2023-08-30T12:07:09;20.60;99.90
15262;DHT22;7733;51.554;13.590;2023-08-30T12:09:36;20.60;99.90
15262;DHT22;7733;51.554;13.590;2023-08-30T12:12:11;20.60;99.90
15262;DHT22;7733;51.554;13.590;2023-08-30T12:14:37;20.80;99.90
15262;DHT22;7733;51.554;13.590;2023-08-30T12:17:04;20.90;99.90
15262;DHT22;7733;51.554;13.590;2023-08-30T12:19:31;20.70;99.90
15262;DHT22;7733;51.554;13.590;2023-08-30T12:22:03;21.30;99.90
15262;DHT22;7733;51.554;13.590;2023-08-30T12:24:46;21.70;99.90
15262;DHT22;7733;51.554;13.590;2023-08-30T12:27:13;21.90;99.90
15262;DHT22;7733;51.554;13.590;2023-08-30T12:29:39;21.70;99.90
15262;DHT22;7733;51.554;13.590;2023-08-30T12:32:06;21.50;99.90
15262;DHT22;7733;51.554;13.590;2023-08-30T12:34:33;21.30;99.90
15262;DHT22;7733;51.554;13.590;2023-08-30T12:36:59;21.50;99.90
15262;DHT22;7733;51.554;13.590;2023-08-30T12:39:27;21.70;99.90
15262;DHT22;7733;51.554;13.590;2023-08-30T12:41:53;21.70;99.90
15262;DHT22;7733;51.554;13.590;2023-08-30T12:44:18;21.90;99.90
15262;DHT22;7733;51.554;13.590;2023-08-30T12:46:44;21.30;99.90
15262;DHT22;7733;51.554;13.590;2023-08-30T12:49:10;21.10;99.90
15262;DHT22;7733;51.554;13.590;2023-08-30T12:51:35;21.10;99.90
15262;DHT22;7733;51.554;13.590;2023-08-30T12:54:01;21.10;99.90
15262;DHT22;7733;51.554;13.590;2023-08-30T12:56:27;21.20;99.90
15262;DHT22;7733;51.554;13.590;2023-08-30T12:58:53;21.60;99.90
15262;DHT22;7733;51.554;13.590;2023-08-30T13:01:18;21.80;99.90
15262;DHT22;7733;51.554;13.590;2023-08-30T13:03:44;21.60;99.90
15262;DHT22;7733;51.554;13.590;2023-08-30T13:06:10;21.40;99.90
15262;DHT22;7733;51.554;13.590;2023-08-30T13:08:35;21.50;99.90
15262;DHT22;7733;51.554;13.590;2023-08-30T13:11:01;21.60;99.90
15262;DHT22;7733;51.554;13.590;2023-08-30T13:13:27;21.30;99.90
15262;DHT22;7733;51.554;13.590;2023-08-30T13:15:53;21.20;99.90
15262;DHT22;7733;51.554;13.590;2023-08-30T13:18:19;21.60;99.90
15262;DHT22;7733;51.554;13.590;2023-08-30T13:20:44;21.90;99.90
15262;DHT22;7733;51.554;13.590;2023-08-30T13:23:10;22.00;99.90
15262;DHT22;7733;51.554;13.590;2023-08-30T13:25:40;22.30;99.90
15262;DHT22;7733;51.554;13.590;2023-08-30T13:28:06;22.30;99.90
15262;DHT22;7733;51.554;13.590;2023-08-30T13:30:33;22.20;99.90
15262;DHT22;7733;51.554;13.590;2023-08-30T13:32:59;22.40;98.70
15262;DHT22;7733;51.554;13.590;2023-08-30T13:35:25;22.30;98.40
15262;DHT22;7733;51.554;13.590;2023-08-30T13:37:50;22.40;99.70
15262;DHT22;7733;51.554;13.590;2023-08-30T13:40:16;22.40;98.20
15262;DHT22;7733;51.554;13.590;2023-08-30T13:42:42;22.40;98.00
15262;DHT22;7733;51.554;13.590;2023-08-30T13:45:08;22.30;97.20
15262;DHT22;7733;51.554;13.590;2023-08-30T13:47:38;22.30;97.00
15262;DHT22;7733;51.554;13.590;2023-08-30T13:50:05;22.20;96.90
15262;DHT22;7733;51.554;13.590;2023-08-30T13:52:31;22.20;97.90
15262;DHT22;7733;51.554;13.590;2023-08-30T13:54:58;22.10;96.70
15262;DHT22;7733;51.554;13.590;2023-08-30T13:57:24;22.00;98.30
15262;DHT22;7733;51.554;13.590;2023-08-30T13:59:50;21.90;98.30
15262;DHT22;7733;51.554;13.590;2023-08-30T14:02:15;22.00;97.40
15262;DHT22;7733;51.554;13.590;2023-08-30T14:04:41;21.90;98.00
15262;DHT22;7733;51.554;13.590;2023-08-30T14:07:07;21.80;98.30
15262;DHT22;7733;51.554;13.590;2023-08-30T14:09:32;21.90;96.60
15262;DHT22;7733;51.554;13.590;2023-08-30T14:11:58;22.00;97.80
15262;DHT22;7733;51.554;13.590;2023-08-30T14:14:24;22.10;98.40
15262;DHT22;7733;51.554;13.590;2023-08-30T14:16:50;22.10;98.00
15262;DHT22;7733;51.554;13.590;2023-08-30T14:19:16;22.10;97.70
15262;DHT22;7733;51.554;13.590;2023-08-30T14:21:42;22.00;97.90
15262;DHT22;7733;51.554;13.590;2023-08-30T14:24:07;22.00;97.20
15262;DHT22;7733;51.554;13.590;2023-08-30T14:26:34;22.10;96.70
15262;DHT22;7733;51.554;13.590;2023-08-30T14:28:59;22.10;96.70
15262;DHT22;7733;51.554;13.590;2023-08-30T14:31:25;21.80;96.10
15262;DHT22;7733;51.554;13.590;2023-08-30T14:33:54;21.90;96.20
15262;DHT22;7733;51.554;13.590;2023-08-30T14:36:24;21.80;96.30
15262;DHT22;7733;51.554;13.590;2023-08-30T14:38:50;21.80;96.10
15262;DHT22;7733;51.554;13.590;2023-08-30T14:41:16;21.90;96.30
15262;DHT22;7733;51.554;13.590;2023-08-30T14:43:43;21.90;96.50
15262;DHT22;7733;51.554;13.590;2023-08-30T14:46:09;21.90;95.90
15262;DHT22;7733;51.554;13.590;2023-08-30T14:48:35;21.70;96.20
15262;DHT22;7733;51.554;13.590;2023-08-30T14:51:01;21.50;95.90
15262;DHT22;7733;51.554;13.590;2023-08-30T14:53:27;21.30;96.70
15262;DHT22;7733;51.554;13.590;2023-08-30T14:55:53;21.10;96.80
15262;DHT22;7733;51.554;13.590;2023-08-30T14:58:20;21.10;96.50
15262;DHT22;7733;51.554;13.590;2023-08-30T15:00:49;21.10;96.90
15262;DHT22;7733;51.554;13.590;2023-08-30T15:03:15;21.00;97.30
15262;DHT22;7733;51.554;13.590;2023-08-30T15:05:41;20.90;97.80
15262;DHT22;7733;51.554;13.590;2023-08-30T15:08:07;20.80;98.00
15262;DHT22;7733;51.554;13.590;2023-08-30T15:10:33;20.80;98.70
15262;DHT22;7733;51.554;13.590;2023-08-30T15:12:59;20.70;98.40
15262;DHT22;7733;51.554;13.590;2023-08-30T15:15:25;20.90;98.90
15262;DHT22;7733;51.554;13.590;2023-08-30T15:17:50;21.10;99.00
15262;DHT22;7733;51.554;13.590;2023-08-30T15:20:16;21.20;98.50
15262;DHT22;7733;51.554;13.590;2023-08-30T15:22:42;21.40;98.40
15262;DHT22;7733;51.554;13.590;2023-08-30T15:25:08;21.70;97.80
15262;DHT22;7733;51.554;13.590;2023-08-30T15:27:34;21.70;95.80
15262;DHT22;7733;51.554;13.590;2023-08-30T15:30:01;21.80;95.30
15262;DHT22;7733;51.554;13.590;2023-08-30T15:32:28;21.80;95.30
15262;DHT22;7733;51.554;13.590;2023-08-30T15:34:54;22.00;94.70
15262;DHT22;7733;51.554;13.590;2023-08-30T15:37:20;22.00;94.10
15262;DHT22;7733;51.554;13.590;2023-08-30T15:39:47;22.10;94.60
15262;DHT22;7733;51.554;13.590;2023-08-30T15:42:24;22.20;94.50
15262;DHT22;7733;51.554;13.590;2023-08-30T15:44:49;22.10;94.00
15262;DHT22;7733;51.554;13.590;2023-08-30T15:47:15;21.90;93.80